Time;durP1;ratioP1;P1;durP2;ratioP2;P2;SDS_P1;SDS_P2;PMS_P1;PMS_P2;Temp;Humidity;BMP_temperature;BMP_pressure;BME280_temperature;BME280_humidity;BME280_pressure;Samples;Min_cycle;Max_cycle;Signal;HPM_P1;HPM_P2
2023/05/20 00:00:37;;;;;;;6.00;1.67;;;13.90;99.90;;;;;;5062988;28;20024;-75
2023/05/20 00:03:02;;;;;;;6.88;1.70;;;13.80;99.90;;;;;;5063461;28;20017;-75
2023/05/20 00:05:28;;;;;;;4.85;1.55;;;13.70;99.90;;;;;;5064632;28;20074;-73
2023/05/20 00:07:54;;;;;;;10.52;1.70;;;13.80;99.90;;;;;;5064488;28;20025;-74
2023/05/20 00:10:19;;;;;;;3.38;1.73;;;13.70;99.90;;;;;;5063176;28;20060;-75
2023/05/20 00:12:45;;;;;;;4.70;1.88;;;13.70;99.90;;;;;;5064386;28;20043;-75
2023/05/20 00:15:13;;;;;;;3.40;1.55;;;13.70;99.90;;;;;;5064075;28;20025;-74
2023/05/20 00:17:39;;;;;;;4.70;1.50;;;13.60;99.90;;;;;;5062385;28;20112;-75
2023/05/20 00:20:06;;;;;;;4.93;1.75;;;13.50;99.90;;;;;;5064282;28;20021;-74
2023/05/20 00:22:31;;;;;;;4.68;1.70;;;13.50;99.90;;;;;;5062728;28;20071;-74
2023/05/20 00:24:57;;;;;;;4.95;1.67;;;13.50;99.90;;;;;;5062915;28;20017;-73
2023/05/20 00:27:22;;;;;;;3.67;2.10;;;13.40;99.90;;;;;;5063470;28;20478;-74
2023/05/20 00:29:48;;;;;;;3.20;1.65;;;13.40;99.90;;;;;;5062616;28;20461;-74
2023/05/20 00:32:14;;;;;;;3.00;1.60;;;13.30;99.90;;;;;;5063956;28;20052;-75
2023/05/20 00:34:41;;;;;;;5.07;1.90;;;13.20;99.90;;;;;;5063739;28;20040;-74
2023/05/20 00:37:07;;;;;;;6.10;1.60;;;13.20;99.90;;;;;;5062122;28;20021;-74
2023/05/20 00:39:32;;;;;;;4.85;2.00;;;13.20;99.90;;;;;;5063439;28;20021;-75
2023/05/20 00:42:01;;;;;;;3.72;1.95;;;13.10;99.90;;;;;;5062187;28;20029;-74
2023/05/20 00:44:26;;;;;;;6.15;1.70;;;13.10;99.90;;;;;;5063529;28;20469;-74
2023/05/20 00:46:53;;;;;;;5.80;1.85;;;13.00;99.90;;;;;;5063888;28;20025;-75
2023/05/20 00:49:19;;;;;;;7.85;2.10;;;13.00;99.90;;;;;;5062933;28;20094;-75
2023/05/20 00:51:46;;;;;;;6.85;1.70;;;12.90;99.90;;;;;;5061267;28;20032;-74
2023/05/20 00:54:11;;;;;;;5.43;2.25;;;12.90;99.90;;;;;;5062159;28;20041;-74
2023/05/20 00:56:37;;;;;;;4.30;1.80;;;12.80;99.90;;;;;;5063210;28;20032;-74
2023/05/20 00:59:03;;;;;;;6.30;2.15;;;12.80;99.90;;;;;;5062256;28;20047;-75
2023/05/20 01:01:29;;;;;;;3.25;1.80;;;12.70;99.90;;;;;;5063651;28;21426;-74
2023/05/20 01:03:54;;;;;;;4.93;2.20;;;12.70;99.90;;;;;;5063295;28;20055;-74
2023/05/20 01:06:20;;;;;;;6.40;2.30;;;12.70;99.90;;;;;;5063132;28;20017;-74
2023/05/20 01:08:45;;;;;;;5.63;2.00;;;12.60;99.90;;;;;;5062167;28;20035;-74
2023/05/20 01:11:21;;;;;;;4.57;2.10;;;12.60;99.90;;;;;;5061247;28;20084;-74
2023/05/20 01:13:54;;;;;;;4.53;1.90;;;12.50;99.90;;;;;;5061192;28;20029;-74
2023/05/20 01:16:23;;;;;;;3.95;1.55;;;12.50;99.90;;;;;;5061304;28;20032;-74
2023/05/20 01:18:50;;;;;;;3.90;1.95;;;12.40;99.90;;;;;;5061988;28;20093;-74
2023/05/20 01:21:17;;;;;;;7.25;1.95;;;12.40;99.90;;;;;;5063488;28;20029;-74
2023/05/20 01:23:43;;;;;;;3.75;1.85;;;12.40;99.90;;;;;;5061784;28;20035;-74
2023/05/20 01:26:12;;;;;;;4.00;1.85;;;12.40;99.90;;;;;;5061592;28;20017;-74
2023/05/20 01:28:38;;;;;;;6.68;2.22;;;12.40;99.90;;;;;;5062928;28;20025;-73
2023/05/20 01:31:07;;;;;;;4.45;1.95;;;12.30;99.90;;;;;;5062672;28;20033;-73
2023/05/20 01:33:36;;;;;;;5.32;1.83;;;12.30;99.90;;;;;;5061319;28;20036;-74
2023/05/20 01:36:02;;;;;;;3.80;1.75;;;12.30;99.90;;;;;;5062713;28;20033;-74
2023/05/20 01:38:28;;;;;;;7.45;1.77;;;12.20;99.90;;;;;;5061302;28;20028;-73
2023/05/20 01:40:56;;;;;;;4.55;1.90;;;12.30;99.90;;;;;;5061269;28;20052;-74
2023/05/20 01:43:24;;;;;;;2.58;1.60;;;12.20;99.90;;;;;;5061087;28;20028;-74
2023/05/20 01:45:49;;;;;;;3.17;1.80;;;12.10;99.90;;;;;;5061182;28;20044;-75
2023/05/20 01:48:16;;;;;;;3.72;1.80;;;12.10;99.90;;;;;;5062144;28;20021;-73
2023/05/20 01:50:41;;;;;;;3.65;1.70;;;12.10;99.90;;;;;;5061120;28;20055;-73
2023/05/20 01:53:08;;;;;;;6.32;1.70;;;12.10;99.90;;;;;;5062097;28;20029;-74
2023/05/20 01:55:34;;;;;;;4.78;1.95;;;12.00;99.90;;;;;;5061813;28;20040;-73
2023/05/20 01:58:00;;;;;;;3.13;1.35;;;12.00;99.90;;;;;;5062292;28;20107;-73
2023/05/20 02:00:26;;;;;;;6.78;1.92;;;11.90;99.90;;;;;;5061913;28;20056;-75
2023/05/20 02:02:51;;;;;;;4.60;2.00;;;11.90;99.90;;;;;;5062521;28;20025;-73
2023/05/20 02:05:17;;;;;;;5.95;1.73;;;11.90;99.90;;;;;;5061215;28;20393;-75
2023/05/20 02:07:43;;;;;;;4.35;1.83;;;11.90;99.90;;;;;;5062007;28;20028;-74
2023/05/20 02:10:09;;;;;;;7.70;1.70;;;11.80;99.90;;;;;;5062106;28;20024;-74
2023/05/20 02:12:34;;;;;;;3.97;1.90;;;11.80;99.90;;;;;;5059937;28;20059;-74
2023/05/20 02:15:00;;;;;;;3.75;2.00;;;11.80;99.90;;;;;;5060858;28;20425;-73
2023/05/20 02:17:25;;;;;;;5.30;2.00;;;11.70;99.90;;;;;;5060878;28;20031;-73
2023/05/20 02:19:51;;;;;;;7.28;2.10;;;11.70;99.90;;;;;;5061934;28;20029;-74
2023/05/20 02:22:17;;;;;;;4.32;1.73;;;11.70;99.90;;;;;;5060292;28;20025;-73
2023/05/20 02:24:43;;;;;;;3.20;1.70;;;11.70;99.90;;;;;;5062263;28;20025;-74
2023/05/20 02:27:08;;;;;;;3.13;1.67;;;11.70;99.90;;;;;;5061416;28;20029;-74
2023/05/20 02:29:34;;;;;;;3.85;1.75;;;11.70;99.90;;;;;;5058125;28;20037;-72
2023/05/20 02:32:00;;;;;;;4.72;1.75;;;11.60;99.90;;;;;;5061510;28;20056;-73
2023/05/20 02:34:26;;;;;;;7.45;2.15;;;11.60;99.90;;;;;;5059872;28;20041;-73
2023/05/20 02:36:52;;;;;;;6.43;1.90;;;11.60;99.90;;;;;;5060526;28;20116;-73
2023/05/20 02:39:17;;;;;;;4.15;1.90;;;11.60;99.90;;;;;;5061310;28;20025;-73
2023/05/20 02:41:43;;;;;;;5.75;1.80;;;11.50;99.90;;;;;;5061693;28;20032;-74
2023/05/20 02:44:08;;;;;;;3.92;1.83;;;11.50;99.90;;;;;;5060652;28;20021;-72
2023/05/20 02:46:34;;;;;;;5.53;1.60;;;11.50;99.90;;;;;;5060132;28;20021;-72
2023/05/20 02:49:00;;;;;;;5.97;1.85;;;11.40;99.90;;;;;;5060739;28;20528;-73
2023/05/20 02:51:25;;;;;;;4.63;1.88;;;11.50;99.90;;;;;;5061420;28;20033;-72
2023/05/20 02:53:51;;;;;;;5.05;1.77;;;11.40;99.90;;;;;;5060914;28;20164;-73
2023/05/20 02:56:20;;;;;;;5.15;1.95;;;11.40;99.90;;;;;;5060191;28;20035;-72
2023/05/20 02:58:46;;;;;;;3.42;1.70;;;11.30;99.90;;;;;;5061526;28;20021;-73
2023/05/20 03:01:12;;;;;;;4.05;1.60;;;11.30;99.90;;;;;;5061427;28;20075;-73
2023/05/20 03:03:39;;;;;;;5.15;1.90;;;11.30;99.90;;;;;;5060031;28;20034;-73
2023/05/20 03:06:05;;;;;;;4.00;1.73;;;11.30;99.90;;;;;;5061392;28;20410;-73
2023/05/20 03:08:32;;;;;;;2.80;1.63;;;11.30;99.90;;;;;;5060525;28;20036;-72
2023/05/20 03:10:58;;;;;;;5.00;1.80;;;11.20;99.90;;;;;;5061723;28;20028;-73
2023/05/20 03:13:24;;;;;;;5.93;1.80;;;11.20;99.90;;;;;;5060157;28;20045;-73
2023/05/20 03:15:50;;;;;;;3.42;1.90;;;11.20;99.90;;;;;;5061464;28;20021;-73
2023/05/20 03:18:16;;;;;;;5.00;1.60;;;11.10;99.90;;;;;;5058683;28;20044;-73
2023/05/20 03:20:41;;;;;;;3.92;1.52;;;11.10;99.90;;;;;;5061070;28;20020;-73
2023/05/20 03:23:08;;;;;;;3.05;1.85;;;11.10;99.90;;;;;;5060772;28;20024;-74
2023/05/20 03:25:34;;;;;;;6.53;1.75;;;11.10;99.90;;;;;;5061778;28;20024;-73
2023/05/20 03:27:59;;;;;;;5.78;1.92;;;11.00;99.90;;;;;;5061102;28;20511;-73
2023/05/20 03:30:26;;;;;;;3.35;1.55;;;11.00;99.90;;;;;;5060881;28;20029;-73
2023/05/20 03:32:52;;;;;;;4.13;1.70;;;11.00;99.90;;;;;;5060315;28;20036;-73
2023/05/20 03:35:18;;;;;;;4.45;1.80;;;10.90;99.90;;;;;;5061425;28;20025;-71
2023/05/20 03:37:44;;;;;;;2.97;1.60;;;10.90;99.90;;;;;;5058896;28;20036;-73
2023/05/20 03:40:10;;;;;;;5.55;1.70;;;10.90;99.90;;;;;;5059615;28;20895;-73
2023/05/20 03:42:36;;;;;;;3.10;1.77;;;10.90;99.90;;;;;;5060501;28;20025;-73
2023/05/20 03:45:02;;;;;;;3.35;1.60;;;10.90;99.90;;;;;;5058422;28;20036;-72
2023/05/20 03:47:28;;;;;;;4.13;1.60;;;10.80;99.90;;;;;;5059071;28;20059;-74
2023/05/20 03:49:54;;;;;;;10.13;1.88;;;10.80;99.90;;;;;;5060883;28;20163;-75
2023/05/20 03:52:20;;;;;;;3.95;1.65;;;10.80;99.90;;;;;;5061312;28;20025;-74
2023/05/20 03:54:45;;;;;;;4.22;1.77;;;10.80;99.90;;;;;;5060692;28;20033;-74
2023/05/20 03:57:11;;;;;;;2.60;1.50;;;10.80;99.90;;;;;;5060701;28;20421;-73
2023/05/20 03:59:37;;;;;;;5.25;1.70;;;10.80;99.90;;;;;;5060381;28;20017;-74
2023/05/20 04:02:03;;;;;;;3.70;1.63;;;10.80;99.90;;;;;;5059267;28;20017;-73
2023/05/20 04:04:29;;;;;;;6.88;1.80;;;10.80;99.90;;;;;;5062361;28;20029;-73
2023/05/20 04:06:55;;;;;;;3.95;1.40;;;10.70;99.90;;;;;;5063801;28;20020;-73
2023/05/20 04:09:21;;;;;;;15.00;1.70;;;10.70;99.90;;;;;;5064107;28;20021;-74
2023/05/20 04:11:47;;;;;;;5.38;1.73;;;10.70;99.90;;;;;;5061979;28;20029;-74
2023/05/20 04:14:13;;;;;;;3.17;1.23;;;10.70;99.90;;;;;;5063935;28;20044;-72
2023/05/20 04:16:38;;;;;;;4.13;1.80;;;10.70;99.90;;;;;;5060136;28;20754;-74
2023/05/20 04:19:04;;;;;;;4.20;1.60;;;10.70;99.90;;;;;;5063131;28;20035;-73
2023/05/20 04:21:30;;;;;;;3.22;1.50;;;10.70;99.90;;;;;;5062786;28;20033;-71
2023/05/20 04:23:56;;;;;;;4.88;1.70;;;10.70;99.90;;;;;;5063255;28;20080;-72
2023/05/20 04:26:22;;;;;;;5.65;1.80;;;10.70;99.90;;;;;;5064176;28;20043;-71
2023/05/20 04:28:48;;;;;;;4.80;1.60;;;10.70;99.90;;;;;;5064000;28;20036;-71
2023/05/20 04:31:14;;;;;;;6.85;2.08;;;10.70;99.90;;;;;;5064140;28;20028;-70
2023/05/20 04:33:39;;;;;;;3.40;1.70;;;10.70;99.90;;;;;;5062536;28;20574;-72
2023/05/20 04:36:15;;;;;;;4.97;1.70;;;10.70;99.90;;;;;;5064126;28;20021;-72
2023/05/20 04:38:41;;;;;;;2.63;1.60;;;10.70;99.90;;;;;;5062106;28;20070;-72
2023/05/20 04:41:08;;;;;;;3.50;1.63;;;10.70;99.90;;;;;;5064039;28;20032;-71
2023/05/20 04:43:34;;;;;;;2.70;1.45;;;10.80;99.90;;;;;;5063886;28;20078;-72
2023/05/20 04:46:00;;;;;;;5.95;1.80;;;10.70;99.90;;;;;;5061842;28;20025;-71
2023/05/20 04:48:26;;;;;;;3.85;2.08;;;10.80;99.90;;;;;;5062193;28;20048;-73
2023/05/20 04:50:53;;;;;;;3.15;2.00;;;10.80;99.90;;;;;;5063705;28;20080;-72
2023/05/20 04:53:20;;;;;;;8.18;1.70;;;10.70;99.90;;;;;;5062139;28;20049;-73
2023/05/20 04:55:46;;;;;;;3.90;1.85;;;10.80;99.90;;;;;;5063341;28;20021;-72
2023/05/20 04:58:14;;;;;;;4.90;1.55;;;10.80;99.90;;;;;;5061617;28;20584;-71
2023/05/20 05:00:44;;;;;;;3.60;1.75;;;10.90;99.90;;;;;;5062453;28;20021;-74
2023/05/20 05:03:11;;;;;;;4.82;1.63;;;10.90;99.90;;;;;;5062723;28;20017;-73
2023/05/20 05:05:38;;;;;;;3.90;1.98;;;10.90;99.90;;;;;;5061583;28;20033;-73
2023/05/20 05:08:04;;;;;;;6.50;2.05;;;10.90;99.90;;;;;;5061673;28;20054;-73
2023/05/20 05:10:30;;;;;;;6.95;2.20;;;10.90;99.90;;;;;;5059353;28;20143;-72
2023/05/20 05:12:56;;;;;;;8.50;2.10;;;11.00;99.90;;;;;;5060139;28;20130;-72
2023/05/20 05:15:22;;;;;;;6.82;1.98;;;11.00;99.90;;;;;;5060582;28;20032;-73
2023/05/20 05:17:47;;;;;;;3.72;1.60;;;11.00;99.90;;;;;;5059227;28;20064;-72
2023/05/20 05:20:13;;;;;;;5.78;2.25;;;11.10;99.90;;;;;;5059663;28;20052;-72
2023/05/20 05:22:40;;;;;;;4.57;2.30;;;11.10;99.90;;;;;;5062548;28;20089;-70
2023/05/20 05:25:07;;;;;;;5.15;2.20;;;11.10;99.90;;;;;;5061478;28;20028;-71
2023/05/20 05:27:32;;;;;;;5.45;2.00;;;11.10;99.90;;;;;;5059222;28;20032;-72
2023/05/20 05:29:58;;;;;;;4.05;2.10;;;11.10;99.90;;;;;;5061142;28;20025;-72
2023/05/20 05:32:24;;;;;;;5.40;2.45;;;11.20;99.90;;;;;;5061727;28;20407;-71
2023/05/20 05:34:50;;;;;;;4.72;2.10;;;11.20;99.90;;;;;;5060977;28;20025;-73
2023/05/20 05:37:15;;;;;;;4.85;2.28;;;11.20;99.90;;;;;;5063332;28;20032;-72
2023/05/20 05:39:41;;;;;;;4.45;2.05;;;11.30;99.90;;;;;;5062864;28;20485;-72
2023/05/20 05:42:06;;;;;;;9.25;2.40;;;11.30;99.90;;;;;;5061144;28;20045;-71
2023/05/20 05:44:32;;;;;;;7.45;2.65;;;11.40;99.90;;;;;;5061558;28;20474;-70
2023/05/20 05:46:58;;;;;;;7.20;2.20;;;11.40;99.90;;;;;;5061422;28;20039;-71
2023/05/20 05:49:23;;;;;;;8.25;2.28;;;11.40;99.90;;;;;;5062283;28;20036;-71
2023/05/20 05:51:52;;;;;;;6.05;2.25;;;11.50;99.90;;;;;;5061569;28;20021;-70
2023/05/20 05:54:19;;;;;;;9.73;2.38;;;11.60;99.90;;;;;;5062378;28;20044;-71
2023/05/20 05:56:44;;;;;;;5.28;2.13;;;11.60;99.90;;;;;;5060730;28;20057;-73
2023/05/20 05:59:10;;;;;;;9.55;2.53;;;11.70;99.90;;;;;;5062211;28;20795;-72
2023/05/20 06:01:36;;;;;;;8.65;2.20;;;11.70;99.90;;;;;;5061238;28;20029;-72
2023/05/20 06:04:02;;;;;;;3.75;2.30;;;11.70;99.90;;;;;;5062110;28;20059;-71
2023/05/20 06:06:27;;;;;;;6.82;2.72;;;11.80;99.90;;;;;;5060544;28;20025;-72
2023/05/20 06:08:53;;;;;;;6.25;2.70;;;11.90;99.90;;;;;;5062257;28;20024;-71
2023/05/20 06:11:19;;;;;;;6.00;2.13;;;11.90;99.90;;;;;;5060650;28;20474;-71
2023/05/20 06:13:45;;;;;;;6.90;2.28;;;12.00;99.90;;;;;;5062732;28;20109;-72
2023/05/20 06:16:10;;;;;;;5.05;2.22;;;12.10;99.90;;;;;;5061643;28;20025;-72
2023/05/20 06:18:36;;;;;;;5.90;2.45;;;12.20;99.90;;;;;;5062218;28;20039;-72
2023/05/20 06:21:02;;;;;;;5.15;2.20;;;12.20;99.90;;;;;;5061925;28;20048;-72
2023/05/20 06:23:27;;;;;;;3.50;2.30;;;12.30;99.90;;;;;;5060059;28;20032;-70
2023/05/20 06:25:57;;;;;;;8.02;2.42;;;12.40;99.90;;;;;;5061212;28;20025;-73
2023/05/20 06:28:23;;;;;;;9.35;2.90;;;12.40;99.90;;;;;;5058824;28;20033;-71
2023/05/20 06:30:49;;;;;;;4.40;2.40;;;12.50;99.90;;;;;;5057830;28;20025;-72
2023/05/20 06:33:14;;;;;;;4.70;2.28;;;12.60;99.90;;;;;;5060321;28;20106;-72
2023/05/20 06:35:41;;;;;;;5.10;2.50;;;12.70;99.90;;;;;;5059997;28;20056;-74
2023/05/20 06:38:06;;;;;;;5.30;2.55;;;12.70;99.90;;;;;;5060519;28;20492;-72
2023/05/20 06:40:32;;;;;;;8.13;2.90;;;12.80;99.90;;;;;;5061986;28;20021;-71
2023/05/20 06:42:57;;;;;;;6.72;2.40;;;12.90;99.90;;;;;;5061522;28;20025;-73
2023/05/20 06:45:23;;;;;;;5.90;2.40;;;12.90;99.90;;;;;;5060784;28;20079;-70
2023/05/20 06:47:48;;;;;;;6.38;2.72;;;12.90;99.90;;;;;;5061563;28;20021;-73
2023/05/20 06:50:14;;;;;;;7.75;2.63;;;13.00;99.90;;;;;;5060104;28;20551;-71
2023/05/20 06:52:39;;;;;;;5.00;2.70;;;13.00;99.90;;;;;;5059290;28;20029;-72
2023/05/20 06:55:05;;;;;;;6.43;2.40;;;13.10;99.90;;;;;;5057512;28;20013;-72
2023/05/20 06:57:31;;;;;;;8.13;2.83;;;13.20;99.90;;;;;;5056290;28;20030;-73
2023/05/20 06:59:56;;;;;;;4.35;2.63;;;13.30;99.90;;;;;;5058608;28;20705;-72
2023/05/20 07:02:22;;;;;;;7.78;2.72;;;13.40;99.90;;;;;;5059155;28;20035;-72
2023/05/20 07:04:48;;;;;;;5.38;2.80;;;13.50;99.90;;;;;;5058248;28;20040;-71
2023/05/20 07:07:14;;;;;;;5.63;2.55;;;13.50;99.90;;;;;;5060202;28;20137;-70
2023/05/20 07:09:41;;;;;;;3.85;2.30;;;13.60;99.90;;;;;;5061240;28;20025;-72
2023/05/20 07:12:07;;;;;;;3.20;2.35;;;13.70;99.90;;;;;;5059296;28;20024;-70
2023/05/20 07:14:33;;;;;;;12.52;2.60;;;13.70;99.90;;;;;;5060917;28;20034;-72
2023/05/20 07:16:58;;;;;;;10.00;3.10;;;13.70;99.90;;;;;;5059436;28;20021;-72
2023/05/20 07:19:24;;;;;;;7.90;3.30;;;13.90;99.90;;;;;;5058703;28;20037;-72
2023/05/20 07:21:49;;;;;;;4.53;2.47;;;14.00;99.90;;;;;;5056704;28;20051;-72
2023/05/20 07:24:17;;;;;;;5.97;2.70;;;14.10;99.90;;;;;;5060751;28;20029;-71
2023/05/20 07:26:43;;;;;;;8.52;2.40;;;14.20;99.90;;;;;;5056173;28;20036;-72
2023/05/20 07:29:09;;;;;;;5.65;2.78;;;14.30;99.90;;;;;;5061133;28;20029;-71
2023/05/20 07:31:34;;;;;;;4.90;2.83;;;14.40;99.90;;;;;;5057711;28;20060;-72
2023/05/20 07:34:00;;;;;;;8.48;2.90;;;14.50;99.90;;;;;;5060785;28;20037;-71
2023/05/20 07:36:27;;;;;;;5.82;2.92;;;14.60;99.90;;;;;;5061629;28;20468;-72
2023/05/20 07:38:53;;;;;;;6.63;2.83;;;14.70;99.90;;;;;;5063085;28;20029;-73
2023/05/20 07:41:18;;;;;;;5.03;2.67;;;14.80;99.90;;;;;;5064755;28;20054;-71
2023/05/20 07:43:44;;;;;;;5.68;3.05;;;14.90;99.90;;;;;;5063612;28;20059;-69
2023/05/20 07:46:10;;;;;;;8.73;2.90;;;15.00;99.90;;;;;;5061867;28;20028;-72
2023/05/20 07:48:36;;;;;;;5.53;2.97;;;15.10;99.90;;;;;;5064253;28;20044;-71
2023/05/20 07:51:01;;;;;;;6.28;2.97;;;15.20;99.90;;;;;;5062875;28;20021;-72
2023/05/20 07:53:27;;;;;;;6.05;3.10;;;15.20;99.90;;;;;;5062778;28;20041;-70
2023/05/20 07:55:52;;;;;;;5.25;2.95;;;15.40;99.90;;;;;;5063997;28;20060;-70
2023/05/20 07:58:18;;;;;;;5.80;2.90;;;15.40;99.90;;;;;;5064532;28;20040;-72
2023/05/20 08:00:44;;;;;;;7.00;3.28;;;15.50;99.90;;;;;;5064166;28;20100;-72
2023/05/20 08:03:10;;;;;;;7.43;3.30;;;15.50;99.90;;;;;;5062183;28;20036;-73
2023/05/20 08:05:37;;;;;;;7.88;3.38;;;15.60;99.90;;;;;;5060562;28;20037;-71
2023/05/20 08:08:03;;;;;;;6.15;3.20;;;15.70;99.90;;;;;;5061662;28;20085;-73
2023/05/20 08:10:29;;;;;;;9.18;3.10;;;15.80;99.90;;;;;;5063202;28;20025;-72
2023/05/20 08:12:55;;;;;;;7.50;3.10;;;15.90;99.90;;;;;;5062537;28;20121;-72
2023/05/20 08:15:21;;;;;;;8.32;3.28;;;16.10;99.90;;;;;;5062943;28;20037;-73
2023/05/20 08:17:46;;;;;;;5.63;3.30;;;16.10;99.90;;;;;;5062199;28;20120;-71
2023/05/20 08:20:13;;;;;;;6.95;3.60;;;16.20;99.90;;;;;;5064165;28;20025;-74
2023/05/20 08:22:39;;;;;;;10.43;4.18;;;16.30;99.90;;;;;;5064621;28;20031;-75
2023/05/20 08:25:07;;;;;;;9.75;3.20;;;16.40;99.90;;;;;;5064131;28;20092;-74
2023/05/20 08:27:34;;;;;;;6.50;3.40;;;16.50;99.90;;;;;;5062572;28;20081;-71
2023/05/20 08:30:00;;;;;;;7.65;3.25;;;16.50;99.90;;;;;;5060682;28;20032;-72
2023/05/20 08:32:25;;;;;;;7.68;3.42;;;16.60;99.90;;;;;;5062438;28;20021;-73
2023/05/20 08:34:51;;;;;;;5.63;2.92;;;16.70;99.90;;;;;;5061001;28;20133;-73
2023/05/20 08:37:16;;;;;;;9.48;3.20;;;16.80;99.90;;;;;;5057991;28;20044;-74
2023/05/20 08:39:45;;;;;;;5.43;3.20;;;16.90;99.90;;;;;;5061054;28;20483;-72
2023/05/20 08:42:12;;;;;;;10.10;3.10;;;17.00;99.90;;;;;;5058461;28;20033;-72
2023/05/20 08:44:39;;;;;;;5.38;3.05;;;17.10;99.90;;;;;;5062277;28;20028;-71
2023/05/20 08:47:06;;;;;;;8.55;3.40;;;17.30;99.90;;;;;;5062276;28;20032;-71
2023/05/20 08:49:31;;;;;;;7.53;3.13;;;17.30;99.90;;;;;;5062514;28;20119;-74
2023/05/20 08:51:59;;;;;;;9.23;2.70;;;17.40;99.90;;;;;;5058120;28;20025;-73
2023/05/20 08:54:32;;;;;;;5.50;2.97;;;17.50;99.90;;;;;;5059919;28;20045;-72
2023/05/20 08:56:59;;;;;;;6.88;2.90;;;17.70;99.90;;;;;;5061321;28;20434;-72
2023/05/20 08:59:25;;;;;;;7.55;2.88;;;18.00;99.90;;;;;;5061356;28;20049;-71
2023/05/20 09:01:50;;;;;;;5.15;2.95;;;18.00;99.90;;;;;;5058147;28;20037;-73
2023/05/20 09:04:16;;;;;;;6.18;2.50;;;18.20;99.90;;;;;;5062047;28;20029;-73
2023/05/20 09:06:43;;;;;;;3.90;2.47;;;18.20;99.90;;;;;;5062096;28;20021;-72
2023/05/20 09:09:13;;;;;;;4.28;2.67;;;18.30;99.90;;;;;;5062605;28;20036;-74
2023/05/20 09:11:40;;;;;;;7.18;2.42;;;18.40;99.90;;;;;;5063561;28;20021;-73
2023/05/20 09:14:06;;;;;;;8.80;3.00;;;18.50;99.90;;;;;;5061130;28;20037;-71
2023/05/20 09:16:32;;;;;;;3.00;2.38;;;18.60;99.90;;;;;;5061039;28;20017;-73
2023/05/20 09:18:57;;;;;;;5.03;2.70;;;18.60;99.90;;;;;;5060981;28;20036;-71
2023/05/20 09:21:27;;;;;;;10.68;2.70;;;18.70;99.90;;;;;;5059091;28;20040;-73
2023/05/20 09:23:56;;;;;;;10.18;2.70;;;18.70;99.90;;;;;;5057948;28;20091;-73
2023/05/20 09:26:22;;;;;;;5.72;2.45;;;18.80;99.90;;;;;;5060297;28;20044;-73
2023/05/20 09:28:48;;;;;;;7.18;1.90;;;18.80;99.90;;;;;;5061444;28;20556;-73
2023/05/20 09:31:14;;;;;;;5.70;2.50;;;18.90;99.90;;;;;;5061008;28;20021;-72
2023/05/20 09:33:40;;;;;;;4.70;2.42;;;19.00;99.90;;;;;;5059710;28;20049;-73
2023/05/20 09:36:10;;;;;;;5.07;2.25;;;19.10;99.90;;;;;;5059892;28;20041;-74
2023/05/20 09:38:38;;;;;;;6.25;2.35;;;19.10;99.90;;;;;;5060642;28;20028;-73
2023/05/20 09:41:07;;;;;;;7.13;2.22;;;19.10;99.90;;;;;;5060620;28;20017;-73
2023/05/20 09:43:34;;;;;;;4.88;2.20;;;19.10;99.90;;;;;;5059197;28;20021;-71
2023/05/20 09:46:00;;;;;;;6.55;2.95;;;19.10;99.90;;;;;;5059891;28;20807;-72
2023/05/20 09:48:26;;;;;;;8.10;2.28;;;19.10;99.90;;;;;;5061357;28;20064;-73
2023/05/20 09:50:54;;;;;;;9.45;2.53;;;19.10;99.90;;;;;;5062337;28;20041;-72
2023/05/20 09:53:22;;;;;;;4.88;2.30;;;19.20;99.90;;;;;;5061021;28;20060;-74
2023/05/20 09:55:49;;;;;;;7.22;2.40;;;19.10;99.90;;;;;;5061844;28;20520;-72
2023/05/20 09:58:18;;;;;;;4.32;2.20;;;19.20;99.90;;;;;;5062275;28;20071;-75
2023/05/20 10:00:45;;;;;;;7.30;2.50;;;19.20;99.90;;;;;;5059561;28;20013;-73
2023/05/20 10:03:11;;;;;;;5.10;2.10;;;19.30;99.90;;;;;;5061944;28;20028;-73
2023/05/20 10:05:44;;;;;;;5.75;2.10;;;19.40;99.90;;;;;;5061768;28;20028;-70
2023/05/20 10:08:18;;;;;;;8.32;2.30;;;19.40;99.90;;;;;;5057594;28;20025;-73
2023/05/20 10:11:11;;;;;;;5.60;2.20;;;19.40;99.90;;;;;;5058236;28;20486;-73
2023/05/20 10:13:55;;;;;;;5.32;2.20;;;19.50;99.90;;;;;;5061459;28;20033;-73
2023/05/20 10:16:28;;;;;;;4.50;1.95;;;19.50;99.90;;;;;;5061254;28;20037;-73
2023/05/20 10:19:19;;;;;;;4.40;2.05;;;19.70;99.90;;;;;;5059454;28;20025;-73
2023/05/20 10:21:56;;;;;;;4.90;1.95;;;19.80;99.90;;;;;;5061690;28;20025;-73
2023/05/20 10:24:32;;;;;;;4.05;2.13;;;19.90;99.90;;;;;;5060728;28;20025;-75
2023/05/20 10:27:02;;;;;;;3.55;2.35;;;19.90;99.90;;;;;;5060403;28;20059;-73
2023/05/20 10:29:27;;;;;;;5.05;2.05;;;19.90;99.90;;;;;;5058983;28;20047;-76
2023/05/20 10:31:53;;;;;;;4.55;2.00;;;20.00;99.90;;;;;;5060307;28;20025;-75
2023/05/20 10:34:21;;;;;;;3.58;2.20;;;20.20;99.90;;;;;;5061852;28;20040;-75
2023/05/20 10:36:52;;;;;;;10.45;2.45;;;20.30;99.90;;;;;;5060879;28;20029;-75
2023/05/20 10:39:18;;;;;;;4.80;2.10;;;20.30;99.90;;;;;;5059050;28;20029;-71
2023/05/20 10:41:44;;;;;;;4.93;2.03;;;20.30;99.90;;;;;;5059839;28;20036;-73
2023/05/20 10:44:10;;;;;;;3.80;1.83;;;20.40;99.90;;;;;;5057552;28;20478;-72
2023/05/20 10:46:36;;;;;;;4.82;1.90;;;20.40;99.90;;;;;;5058006;28;20035;-71
2023/05/20 10:49:03;;;;;;;8.45;2.05;;;20.40;99.90;;;;;;5057141;28;20112;-72
2023/05/20 10:51:31;;;;;;;4.60;1.98;;;20.40;99.90;;;;;;5057326;28;20033;-72
2023/05/20 10:53:57;;;;;;;4.95;2.03;;;20.40;99.90;;;;;;5057862;28;20062;-74
2023/05/20 10:56:25;;;;;;;4.72;1.90;;;20.60;99.90;;;;;;5061531;28;20020;-74
2023/05/20 10:58:52;;;;;;;4.10;2.15;;;20.60;99.90;;;;;;5060588;28;20044;-73
2023/05/20 11:01:22;;;;;;;5.10;2.20;;;20.60;99.90;;;;;;5058100;28;20053;-74
2023/05/20 11:03:48;;;;;;;5.88;2.10;;;20.50;99.90;;;;;;5060010;28;20040;-74
2023/05/20 11:06:17;;;;;;;3.55;2.03;;;20.50;99.90;;;;;;5059155;28;20117;-73
2023/05/20 11:08:43;;;;;;;4.25;1.73;;;20.60;99.90;;;;;;5061104;28;20025;-71
2023/05/20 11:11:13;;;;;;;4.70;2.03;;;20.50;99.90;;;;;;5061654;28;20021;-72
2023/05/20 11:13:40;;;;;;;4.80;1.80;;;20.50;99.90;;;;;;5060978;28;20041;-74
2023/05/20 11:16:05;;;;;;;3.38;1.67;;;20.40;99.90;;;;;;5061719;28;20497;-74
2023/05/20 11:18:31;;;;;;;10.25;2.25;;;20.50;99.90;;;;;;5061593;28;20096;-74
2023/05/20 11:20:57;;;;;;;7.65;1.98;;;20.60;99.90;;;;;;5059027;28;20033;-72
2023/05/20 11:23:25;;;;;;;4.63;1.70;;;20.80;99.90;;;;;;5064137;28;20029;-70
2023/05/20 11:25:52;;;;;;;5.68;2.30;;;20.90;99.90;;;;;;5058480;28;20053;-74
2023/05/20 11:28:20;;;;;;;2.53;1.60;;;20.90;99.90;;;;;;5061365;28;20017;-74
2023/05/20 11:30:46;;;;;;;5.63;1.73;;;20.80;99.90;;;;;;5063999;28;20030;-74
2023/05/20 11:33:14;;;;;;;9.68;2.15;;;20.70;99.90;;;;;;5064643;28;20037;-73
2023/05/20 11:35:48;;;;;;;4.75;2.15;;;20.50;99.90;;;;;;5064665;28;20559;-73
2023/05/20 11:38:14;;;;;;;3.95;1.80;;;20.30;99.90;;;;;;5063898;28;20021;-74
2023/05/20 11:40:49;;;;;;;4.20;1.60;;;20.00;99.90;;;;;;5063148;28;20393;-71
2023/05/20 11:43:15;;;;;;;5.80;1.70;;;19.80;99.90;;;;;;5063240;28;20080;-73
2023/05/20 11:45:43;;;;;;;6.50;1.90;;;19.50;99.90;;;;;;5064258;28;20551;-72
2023/05/20 11:48:11;;;;;;;4.93;1.60;;;19.40;99.90;;;;;;5064092;28;20021;-71
2023/05/20 11:50:39;;;;;;;3.17;1.95;;;19.20;99.90;;;;;;5062871;28;20049;-72
2023/05/20 11:53:07;;;;;;;3.17;2.00;;;19.20;99.90;;;;;;5059735;28;20075;-73
2023/05/20 11:55:33;;;;;;;4.10;1.73;;;19.00;99.90;;;;;;5059250;28;20025;-73
2023/05/20 11:58:01;;;;;;;9.75;1.80;;;18.90;99.90;;;;;;5062208;28;20036;-74
2023/05/20 12:00:27;;;;;;;1.80;1.60;;;18.90;99.90;;;;;;5064240;28;20032;-73
2023/05/20 12:02:52;;;;;;;5.05;2.00;;;18.70;99.90;;;;;;5061817;28;20017;-72
2023/05/20 12:05:19;;;;;;;4.80;1.90;;;18.70;99.90;;;;;;5061017;28;20029;-72
2023/05/20 12:07:44;;;;;;;7.93;2.10;;;18.70;99.90;;;;;;5058576;28;20032;-73
2023/05/20 12:10:10;;;;;;;6.80;2.20;;;18.70;99.90;;;;;;5060066;28;20037;-73
2023/05/20 12:12:36;;;;;;;11.35;3.90;;;18.70;99.90;;;;;;5060003;28;20022;-72
2023/05/20 12:15:03;;;;;;;54.08;14.82;;;18.70;99.90;;;;;;5060243;28;20044;-74
2023/05/20 12:17:43;;;;;;;100.78;25.10;;;18.70;99.90;;;;;;5062358;28;20031;-72
2023/05/20 12:20:10;;;;;;;9.48;3.47;;;18.70;99.90;;;;;;5061029;28;20529;-72
2023/05/20 12:22:35;;;;;;;6.70;2.15;;;18.70;99.90;;;;;;5062063;28;20044;-73
2023/05/20 12:25:01;;;;;;;4.40;1.80;;;18.60;99.90;;;;;;5061013;28;20470;-72
2023/05/20 12:27:27;;;;;;;7.68;3.08;;;18.60;99.90;;;;;;5061248;28;20033;-73
2023/05/20 12:29:52;;;;;;;5.40;2.72;;;18.50;99.90;;;;;;5061879;28;20040;-73
2023/05/20 12:32:19;;;;;;;6.50;2.17;;;18.50;99.90;;;;;;5062989;28;20036;-73
2023/05/20 12:34:45;;;;;;;3.58;1.60;;;18.50;99.90;;;;;;5063330;28;20036;-72
2023/05/20 12:37:11;;;;;;;12.20;3.92;;;18.50;99.90;;;;;;5062348;28;20014;-72
2023/05/20 12:39:36;;;;;;;6.35;2.40;;;18.50;99.90;;;;;;5062422;28;20029;-73
2023/05/20 12:42:02;;;;;;;7.03;1.80;;;18.50;99.90;;;;;;5062242;28;20075;-74